DAP weather

Darchula Airport
Darchula, Mahakali, Nepal

Public forecast

Using degrees Celsius for public forecast. Weather courtesy of forecast.io.

METAR (pilot weather report)

Report is more than 6 hours old.

Closest report is Pantnagar Airport, 68.0 nm (125.9 km) SW. Retrieved 2019/09/19 06:30 UTC (9 hours ago):

VIPT 190630Z 09008KT 8000 FEW030 31/23 Q1013

TAF (pilot weather forecast)

Forecast is more than 12 hours old.

Closest forecast is Pantnagar Airport, 68.0 nm (125.9 km) SW. Retrieved 2016/07/10 06:00 UTC (3 years ago):

TAF VIPT 100500Z 1006/1015 24005KT 4000 HZ FEW040 SCT100 TEMPO 1010/1015 2000 -TSRA SCT030 FEW035CB BKN090